sensor_id;sensor_type;location;lat;lon;timestamp;pressure;altitude;pressure_sealevel;temperature
64947;BMP280;51469;52.150;4.682;2023-09-19T00:02:58;100850.06;;;21.90
64947;BMP280;51469;52.150;4.682;2023-09-19T00:05:29;100842.59;;;22.18
64947;BMP280;51469;52.150;4.682;2023-09-19T00:07:58;100852.22;;;22.17
64947;BMP280;51469;52.150;4.682;2023-09-19T00:10:27;100852.56;;;22.28
64947;BMP280;51469;52.150;4.682;2023-09-19T00:12:57;100846.31;;;22.24
64947;BMP280;51469;52.150;4.682;2023-09-19T00:15:24;100856.25;;;22.16
64947;BMP280;51469;52.150;4.682;2023-09-19T00:17:51;100854.84;;;22.11
64947;BMP280;51469;52.150;4.682;2023-09-19T00:20:17;100854.34;;;22.13
64947;BMP280;51469;52.150;4.682;2023-09-19T00:22:43;100863.66;;;22.10
64947;BMP280;51469;52.150;4.682;2023-09-19T00:25:09;100859.09;;;22.25
64947;BMP280;51469;52.150;4.682;2023-09-19T00:27:41;100858.91;;;22.19
64947;BMP280;51469;52.150;4.682;2023-09-19T00:30:10;100869.97;;;22.32
64947;BMP280;51469;52.150;4.682;2023-09-19T00:32:40;100869.34;;;22.28
64947;BMP280;51469;52.150;4.682;2023-09-19T00:35:06;100877.47;;;22.35
64947;BMP280;51469;52.150;4.682;2023-09-19T00:37:34;100870.59;;;22.36
64947;BMP280;51469;52.150;4.682;2023-09-19T00:39:59;100865.16;;;22.32
64947;BMP280;51469;52.150;4.682;2023-09-19T00:42:24;100865.94;;;22.33
64947;BMP280;51469;52.150;4.682;2023-09-19T00:44:51;100872.50;;;22.39
64947;BMP280;51469;52.150;4.682;2023-09-19T00:47:18;100875.56;;;22.32
64947;BMP280;51469;52.150;4.682;2023-09-19T00:49:46;100875.25;;;22.30
64947;BMP280;51469;52.150;4.682;2023-09-19T00:52:18;100869.84;;;22.05
64947;BMP280;51469;52.150;4.682;2023-09-19T00:54:47;100865.59;;;22.22
64947;BMP280;51469;52.150;4.682;2023-09-19T00:57:13;100870.25;;;22.25
64947;BMP280;51469;52.150;4.682;2023-09-19T00:59:40;100876.66;;;22.25
64947;BMP280;51469;52.150;4.682;2023-09-19T01:02:07;100878.06;;;22.30
64947;BMP280;51469;52.150;4.682;2023-09-19T01:04:33;100870.88;;;22.29
64947;BMP280;51469;52.150;4.682;2023-09-19T01:06:59;100886.75;;;22.32
64947;BMP280;51469;52.150;4.682;2023-09-19T01:09:24;100881.53;;;22.12
64947;BMP280;51469;52.150;4.682;2023-09-19T01:11:53;100880.50;;;22.28
64947;BMP280;51469;52.150;4.682;2023-09-19T01:14:55;100878.06;;;22.30
64947;BMP280;51469;52.150;4.682;2023-09-19T01:28:13;100896.06;;;21.98
64947;BMP280;51469;52.150;4.682;2023-09-19T01:30:45;100892.16;;;21.96
64947;BMP280;51469;52.150;4.682;2023-09-19T01:33:11;100882.56;;;21.97
64947;BMP280;51469;52.150;4.682;2023-09-19T01:35:40;100886.16;;;21.97
64947;BMP280;51469;52.150;4.682;2023-09-19T01:38:08;100886.19;;;21.85
64947;BMP280;51469;52.150;4.682;2023-09-19T01:40:58;100892.03;;;21.99
64947;BMP280;51469;52.150;4.682;2023-09-19T01:43:38;100901.25;;;22.09
64947;BMP280;51469;52.150;4.682;2023-09-19T01:46:13;100885.38;;;22.06
64947;BMP280;51469;52.150;4.682;2023-09-19T01:51:42;100903.41;;;22.14
64947;BMP280;51469;52.150;4.682;2023-09-19T01:54:11;100899.69;;;22.08
64947;BMP280;51469;52.150;4.682;2023-09-19T01:56:45;100907.72;;;22.06
64947;BMP280;51469;52.150;4.682;2023-09-19T01:59:16;100900.03;;;22.19
64947;BMP280;51469;52.150;4.682;2023-09-19T02:01:45;100902.38;;;22.20
64947;BMP280;51469;52.150;4.682;2023-09-19T02:04:10;100903.41;;;22.14
64947;BMP280;51469;52.150;4.682;2023-09-19T02:06:40;100896.94;;;22.17
64947;BMP280;51469;52.150;4.682;2023-09-19T02:09:06;100883.00;;;22.26
64947;BMP280;51469;52.150;4.682;2023-09-19T02:11:31;100893.97;;;22.11
64947;BMP280;51469;52.150;4.682;2023-09-19T02:13:56;100885.00;;;21.95
64947;BMP280;51469;52.150;4.682;2023-09-19T02:16:22;100890.97;;;22.06
64947;BMP280;51469;52.150;4.682;2023-09-19T02:18:49;100899.47;;;22.02
64947;BMP280;51469;52.150;4.682;2023-09-19T02:21:15;100896.19;;;21.95
64947;BMP280;51469;52.150;4.682;2023-09-19T02:23:40;100893.47;;;22.04
64947;BMP280;51469;52.150;4.682;2023-09-19T02:26:06;100898.94;;;21.86
64947;BMP280;51469;52.150;4.682;2023-09-19T02:28:32;100896.75;;;21.90
64947;BMP280;51469;52.150;4.682;2023-09-19T02:31:00;100903.31;;;21.96
64947;BMP280;51469;52.150;4.682;2023-09-19T02:33:26;100906.81;;;22.09
64947;BMP280;51469;52.150;4.682;2023-09-19T02:35:55;100905.41;;;22.04
64947;BMP280;51469;52.150;4.682;2023-09-19T02:38:23;100919.81;;;22.03
64947;BMP280;51469;52.150;4.682;2023-09-19T02:40:50;100914.78;;;21.89
64947;BMP280;51469;52.150;4.682;2023-09-19T02:43:16;100918.28;;;22.02
64947;BMP280;51469;52.150;4.682;2023-09-19T02:45:42;100910.50;;;21.97
64947;BMP280;51469;52.150;4.682;2023-09-19T02:48:07;100911.75;;;22.05
64947;BMP280;51469;52.150;4.682;2023-09-19T02:50:33;100909.50;;;21.91
64947;BMP280;51469;52.150;4.682;2023-09-19T02:52:59;100904.66;;;22.04
64947;BMP280;51469;52.150;4.682;2023-09-19T02:55:24;100897.75;;;21.96
64947;BMP280;51469;52.150;4.682;2023-09-19T02:57:51;100904.78;;;22.00
64947;BMP280;51469;52.150;4.682;2023-09-19T03:00:18;100898.41;;;22.00
64947;BMP280;51469;52.150;4.682;2023-09-19T03:02:55;100907.22;;;21.98
64947;BMP280;51469;52.150;4.682;2023-09-19T03:05:21;100899.69;;;22.08
64947;BMP280;51469;52.150;4.682;2023-09-19T03:07:49;100903.16;;;22.21
64947;BMP280;51469;52.150;4.682;2023-09-19T03:10:19;100911.75;;;22.26
64947;BMP280;51469;52.150;4.682;2023-09-19T03:12:44;100910.88;;;22.08
64947;BMP280;51469;52.150;4.682;2023-09-19T03:15:10;100896.28;;;22.13
64947;BMP280;51469;52.150;4.682;2023-09-19T03:17:35;100898.00;;;22.10
64947;BMP280;51469;52.150;4.682;2023-09-19T03:20:02;100899.31;;;21.97
64947;BMP280;51469;52.150;4.682;2023-09-19T03:22:29;100901.78;;;21.95
64947;BMP280;51469;52.150;4.682;2023-09-19T03:24:54;100895.91;;;22.02
64947;BMP280;51469;52.150;4.682;2023-09-19T03:27:20;100900.84;;;21.98
64947;BMP280;51469;52.150;4.682;2023-09-19T03:29:46;100897.75;;;21.96
64947;BMP280;51469;52.150;4.682;2023-09-19T03:32:11;100890.75;;;21.70
64947;BMP280;51469;52.150;4.682;2023-09-19T03:34:38;100894.22;;;21.83
64947;BMP280;51469;52.150;4.682;2023-09-19T03:37:08;100902.59;;;21.74
64947;BMP280;51469;52.150;4.682;2023-09-19T03:39:33;100894.84;;;21.78
64947;BMP280;51469;52.150;4.682;2023-09-19T03:41:59;100913.28;;;21.97
64947;BMP280;51469;52.150;4.682;2023-09-19T03:44:24;100917.03;;;22.03
64947;BMP280;51469;52.150;4.682;2023-09-19T03:46:49;100910.63;;;21.93
64947;BMP280;51469;52.150;4.682;2023-09-19T03:49:15;100918.91;;;22.06
64947;BMP280;51469;52.150;4.682;2023-09-19T03:51:40;100924.84;;;22.08
64947;BMP280;51469;52.150;4.682;2023-09-19T03:54:07;100920.19;;;22.14
64947;BMP280;51469;52.150;4.682;2023-09-19T03:56:32;100917.75;;;22.16
64947;BMP280;51469;52.150;4.682;2023-09-19T03:58:58;100915.25;;;22.18
64947;BMP280;51469;52.150;4.682;2023-09-19T04:01:23;100921.44;;;22.13
64947;BMP280;51469;52.150;4.682;2023-09-19T04:03:49;100917.47;;;22.23
64947;BMP280;51469;52.150;4.682;2023-09-19T04:06:17;100922.09;;;22.17
64947;BMP280;51469;52.150;4.682;2023-09-19T04:08:43;100927.38;;;22.15
64947;BMP280;51469;52.150;4.682;2023-09-19T04:11:10;100936.06;;;22.17
64947;BMP280;51469;52.150;4.682;2023-09-19T04:13:35;100936.00;;;22.08
64947;BMP280;51469;52.150;4.682;2023-09-19T04:16:01;100941.91;;;22.10
64947;BMP280;51469;52.150;4.682;2023-09-19T04:18:29;100933.25;;;22.17
64947;BMP280;51469;52.150;4.682;2023-09-19T04:20:56;100936.00;;;22.08
64947;BMP280;51469;52.150;4.682;2023-09-19T04:23:21;100932.09;;;22.27
64947;BMP280;51469;52.150;4.682;2023-09-19T04:25:47;100945.69;;;22.16
64947;BMP280;51469;52.150;4.682;2023-09-19T04:28:13;100955.66;;;22.26
64947;BMP280;51469;52.150;4.682;2023-09-19T04:30:39;100945.69;;;22.16
64947;BMP280;51469;52.150;4.682;2023-09-19T04:33:07;100937.50;;;22.00
64947;BMP280;51469;52.150;4.682;2023-09-19T04:35:33;100945.50;;;22.10
64947;BMP280;51469;52.150;4.682;2023-09-19T04:37:59;100948.34;;;22.19
64947;BMP280;51469;52.150;4.682;2023-09-19T04:40:25;100949.06;;;22.11
64947;BMP280;51469;52.150;4.682;2023-09-19T04:42:55;100948.44;;;22.07
64947;BMP280;51469;52.150;4.682;2023-09-19T04:45:24;100943.47;;;22.11
64947;BMP280;51469;52.150;4.682;2023-09-19T04:47:50;100951.72;;;22.14
64947;BMP280;51469;52.150;4.682;2023-09-19T04:50:15;100957.66;;;22.16
64947;BMP280;51469;52.150;4.682;2023-09-19T04:52:45;100961.94;;;21.87
64947;BMP280;51469;52.150;4.682;2023-09-19T04:55:12;100952.44;;;22.06
64947;BMP280;51469;52.150;4.682;2023-09-19T04:57:43;100949.97;;;22.08
64947;BMP280;51469;52.150;4.682;2023-09-19T05:00:10;100955.88;;;22.10
64947;BMP280;51469;52.150;4.682;2023-09-19T05:02:38;100953.66;;;22.05
64947;BMP280;51469;52.150;4.682;2023-09-19T05:05:06;100958.94;;;22.03
64947;BMP280;51469;52.150;4.682;2023-09-19T05:07:32;100950.50;;;21.94
64947;BMP280;51469;52.150;4.682;2023-09-19T05:09:59;100958.16;;;22.02
64947;BMP280;51469;52.150;4.682;2023-09-19T05:12:26;100948.03;;;21.96
64947;BMP280;51469;52.150;4.682;2023-09-19T05:14:51;100959.41;;;21.80
64947;BMP280;51469;52.150;4.682;2023-09-19T05:17:16;100953.44;;;21.69
64947;BMP280;51469;52.150;4.682;2023-09-19T05:19:42;100952.13;;;21.61
64947;BMP280;51469;52.150;4.682;2023-09-19T05:22:08;100958.28;;;21.56
64947;BMP280;51469;52.150;4.682;2023-09-19T05:24:33;100950.50;;;21.51
64947;BMP280;51469;52.150;4.682;2023-09-19T05:26:58;100959.03;;;21.56
64947;BMP280;51469;52.150;4.682;2023-09-19T05:29:24;100958.28;;;21.56
64947;BMP280;51469;52.150;4.682;2023-09-19T05:31:50;100957.34;;;21.59
64947;BMP280;51469;52.150;4.682;2023-09-19T05:34:16;100965.47;;;21.32
64947;BMP280;51469;52.150;4.682;2023-09-19T05:36:41;100969.81;;;21.45
64947;BMP280;51469;52.150;4.682;2023-09-19T05:39:07;100964.22;;;21.45
64947;BMP280;51469;52.150;4.682;2023-09-19T05:41:35;100964.72;;;21.31
64947;BMP280;51469;52.150;4.682;2023-09-19T05:44:02;100966.22;;;21.11
64947;BMP280;51469;52.150;4.682;2023-09-19T05:46:27;100967.78;;;20.99
64947;BMP280;51469;52.150;4.682;2023-09-19T05:48:55;100970.66;;;21.21
64947;BMP280;51469;52.150;4.682;2023-09-19T05:51:21;100965.47;;;21.32
64947;BMP280;51469;52.150;4.682;2023-09-19T05:53:47;100977.38;;;21.11
64947;BMP280;51469;52.150;4.682;2023-09-19T05:56:14;100977.38;;;21.45
64947;BMP280;51469;52.150;4.682;2023-09-19T05:58:40;100979.38;;;21.57
64947;BMP280;51469;52.150;4.682;2023-09-19T06:01:09;100978.00;;;21.61
64947;BMP280;51469;52.150;4.682;2023-09-19T06:03:35;100973.97;;;21.41
64947;BMP280;51469;52.150;4.682;2023-09-19T06:06:03;100972.81;;;21.51
64947;BMP280;51469;52.150;4.682;2023-09-19T06:08:32;100970.72;;;21.42
64947;BMP280;51469;52.150;4.682;2023-09-19T06:10:57;100977.38;;;21.45
64947;BMP280;51469;52.150;4.682;2023-09-19T06:13:22;100987.34;;;21.46
64947;BMP280;51469;52.150;4.682;2023-09-19T06:15:50;100981.63;;;21.83
64947;BMP280;51469;52.150;4.682;2023-09-19T06:18:16;100976.81;;;21.84
64947;BMP280;51469;52.150;4.682;2023-09-19T06:20:48;100975.47;;;21.88
64947;BMP280;51469;52.150;4.682;2023-09-19T06:23:16;100977.47;;;21.88
64947;BMP280;51469;52.150;4.682;2023-09-19T06:25:42;100983.88;;;21.42
64947;BMP280;51469;52.150;4.682;2023-09-19T06:28:09;100982.72;;;21.86
64947;BMP280;51469;52.150;4.682;2023-09-19T06:30:38;100982.13;;;21.91
64947;BMP280;51469;52.150;4.682;2023-09-19T06:33:07;100990.88;;;21.59
64947;BMP280;51469;52.150;4.682;2023-09-19T06:35:33;100992.09;;;21.70
64947;BMP280;51469;52.150;4.682;2023-09-19T06:37:58;100997.75;;;21.67
64947;BMP280;51469;52.150;4.682;2023-09-19T06:40:24;100988.16;;;21.68
64947;BMP280;51469;52.150;4.682;2023-09-19T06:42:53;100992.19;;;21.67
64947;BMP280;51469;52.150;4.682;2023-09-19T06:45:19;100989.13;;;21.40
64947;BMP280;51469;52.150;4.682;2023-09-19T06:47:47;100995.84;;;21.76
64947;BMP280;51469;52.150;4.682;2023-09-19T06:50:20;100995.16;;;21.51
64947;BMP280;51469;52.150;4.682;2023-09-19T06:52:48;100993.66;;;21.59
64947;BMP280;51469;52.150;4.682;2023-09-19T06:55:15;100999.91;;;21.97
64947;BMP280;51469;52.150;4.682;2023-09-19T06:57:41;100990.66;;;22.09
64947;BMP280;51469;52.150;4.682;2023-09-19T07:00:08;100992.34;;;21.85
64947;BMP280;51469;52.150;4.682;2023-09-19T07:02:41;100991.84;;;21.99
64947;BMP280;51469;52.150;4.682;2023-09-19T07:05:07;100994.16;;;21.79
64947;BMP280;51469;52.150;4.682;2023-09-19T07:07:32;100993.91;;;21.86
64947;BMP280;51469;52.150;4.682;2023-09-19T07:10:03;101002.72;;;22.06
64947;BMP280;51469;52.150;4.682;2023-09-19T07:12:31;101001.03;;;21.87
64947;BMP280;51469;52.150;4.682;2023-09-19T07:14:58;101008.44;;;22.24
64947;BMP280;51469;52.150;4.682;2023-09-19T07:17:23;101008.53;;;22.11
64947;BMP280;51469;52.150;4.682;2023-09-19T07:19:49;101012.16;;;22.21
64947;BMP280;51469;52.150;4.682;2023-09-19T07:22:15;101022.84;;;22.44
64947;BMP280;51469;52.150;4.682;2023-09-19T07:24:41;101011.44;;;22.29
64947;BMP280;51469;52.150;4.682;2023-09-19T07:27:06;101027.84;;;21.97
64947;BMP280;51469;52.150;4.682;2023-09-19T07:29:31;101018.06;;;22.01
64947;BMP280;51469;52.150;4.682;2023-09-19T07:31:57;101016.00;;;22.14
64947;BMP280;51469;52.150;4.682;2023-09-19T07:34:22;101008.84;;;22.35
64947;BMP280;51469;52.150;4.682;2023-09-19T07:36:49;101011.09;;;22.49
64947;BMP280;51469;52.150;4.682;2023-09-19T07:39:15;101017.09;;;22.69
64947;BMP280;51469;52.150;4.682;2023-09-19T07:41:40;101029.09;;;22.48
64947;BMP280;51469;52.150;4.682;2023-09-19T07:44:05;101015.16;;;22.57
64947;BMP280;51469;52.150;4.682;2023-09-19T07:46:31;101026.09;;;22.64
64947;BMP280;51469;52.150;4.682;2023-09-19T07:48:57;101030.31;;;22.47
64947;BMP280;51469;52.150;4.682;2023-09-19T07:51:22;101015.13;;;22.48
64947;BMP280;51469;52.150;4.682;2023-09-19T07:53:48;101012.16;;;22.73
64947;BMP280;51469;52.150;4.682;2023-09-19T07:56:13;101025.72;;;22.53
64947;BMP280;51469;52.150;4.682;2023-09-19T07:58:40;101016.91;;;22.33
64947;BMP280;51469;52.150;4.682;2023-09-19T08:01:09;101013.88;;;22.49
64947;BMP280;51469;52.150;4.682;2023-09-19T08:03:36;101024.34;;;22.27
64947;BMP280;51469;52.150;4.682;2023-09-19T08:06:10;101013.03;;;22.70
64947;BMP280;51469;52.150;4.682;2023-09-19T08:08:36;101000.91;;;22.64
64947;BMP280;51469;52.150;4.682;2023-09-19T08:11:03;101000.97;;;22.73
64947;BMP280;51469;52.150;4.682;2023-09-19T08:13:46;100993.28;;;23.12
64947;BMP280;51469;52.150;4.682;2023-09-19T08:16:14;100999.59;;;23.43
64947;BMP280;51469;52.150;4.682;2023-09-19T08:18:48;100999.50;;;23.07
64947;BMP280;51469;52.150;4.682;2023-09-19T08:21:13;101005.81;;;23.29
64947;BMP280;51469;52.150;4.682;2023-09-19T08:23:40;100998.28;;;23.17
64947;BMP280;51469;52.150;4.682;2023-09-19T08:26:07;100991.97;;;23.35
64947;BMP280;51469;52.150;4.682;2023-09-19T08:28:36;101003.44;;;23.28
64947;BMP280;51469;52.150;4.682;2023-09-19T08:31:03;100991.81;;;23.29
64947;BMP280;51469;52.150;4.682;2023-09-19T08:33:31;100992.59;;;23.30
64947;BMP280;51469;52.150;4.682;2023-09-19T08:35:56;100988.59;;;22.91
64947;BMP280;51469;52.150;4.682;2023-09-19T08:38:22;100994.31;;;22.88
64947;BMP280;51469;52.150;4.682;2023-09-19T08:40:47;100998.03;;;23.42
64947;BMP280;51469;52.150;4.682;2023-09-19T08:43:12;101004.28;;;23.46
64947;BMP280;51469;52.150;4.682;2023-09-19T08:45:38;101006.50;;;23.03
64947;BMP280;51469;52.150;4.682;2023-09-19T08:51:07;101001.75;;;23.48
64947;BMP280;51469;52.150;4.682;2023-09-19T08:56:26;100995.56;;;23.62
64947;BMP280;51469;52.150;4.682;2023-09-19T08:59:03;100995.63;;;23.14
64947;BMP280;51469;52.150;4.682;2023-09-19T09:01:31;101003.44;;;23.28
64947;BMP280;51469;52.150;4.682;2023-09-19T09:03:57;101011.69;;;23.22
64947;BMP280;51469;52.150;4.682;2023-09-19T09:06:24;100999.78;;;22.91
64947;BMP280;51469;52.150;4.682;2023-09-19T09:08:50;101003.00;;;23.38
64947;BMP280;51469;52.150;4.682;2023-09-19T09:11:16;100997.69;;;23.22
64947;BMP280;51469;52.150;4.682;2023-09-19T09:13:43;100991.47;;;23.27
64947;BMP280;51469;52.150;4.682;2023-09-19T09:16:10;100983.72;;;23.58
64947;BMP280;51469;52.150;4.682;2023-09-19T09:18:35;100995.88;;;23.46
64947;BMP280;51469;52.150;4.682;2023-09-19T09:21:01;100991.75;;;23.20
64947;BMP280;51469;52.150;4.682;2023-09-19T09:23:27;100998.94;;;23.48
64947;BMP280;51469;52.150;4.682;2023-09-19T09:25:57;100978.13;;;23.40
64947;BMP280;51469;52.150;4.682;2023-09-19T09:28:29;100989.66;;;23.51
64947;BMP280;51469;52.150;4.682;2023-09-19T09:30:56;100988.56;;;23.40
64947;BMP280;51469;52.150;4.682;2023-09-19T09:33:23;100987.44;;;23.73
64947;BMP280;51469;52.150;4.682;2023-09-19T09:35:51;100976.19;;;24.09
64947;BMP280;51469;52.150;4.682;2023-09-19T09:38:23;100980.09;;;24.53
64947;BMP280;51469;52.150;4.682;2023-09-19T09:40:53;100982.94;;;24.44
64947;BMP280;51469;52.150;4.682;2023-09-19T09:43:40;100976.19;;;24.18
64947;BMP280;51469;52.150;4.682;2023-09-19T09:51:36;100973.44;;;24.00
64947;BMP280;51469;52.150;4.682;2023-09-19T09:54:17;100968.56;;;24.51
64947;BMP280;51469;52.150;4.682;2023-09-19T09:56:59;100968.56;;;24.10
64947;BMP280;51469;52.150;4.682;2023-09-19T10:02:14;100965.06;;;23.64
64947;BMP280;51469;52.150;4.682;2023-09-19T10:04:45;100948.38;;;23.79
64947;BMP280;51469;52.150;4.682;2023-09-19T10:07:43;100953.72;;;24.27
64947;BMP280;51469;52.150;4.682;2023-09-19T10:10:15;100947.19;;;24.21
64947;BMP280;51469;52.150;4.682;2023-09-19T10:12:47;100939.78;;;23.91
64947;BMP280;51469;52.150;4.682;2023-09-19T10:15:14;100956.94;;;23.84
64947;BMP280;51469;52.150;4.682;2023-09-19T10:17:43;100944.69;;;24.23
64947;BMP280;51469;52.150;4.682;2023-09-19T10:20:16;100954.75;;;23.70
64947;BMP280;51469;52.150;4.682;2023-09-19T10:22:59;100945.72;;;23.84
64947;BMP280;51469;52.150;4.682;2023-09-19T10:25:28;100941.53;;;23.80
64947;BMP280;51469;52.150;4.682;2023-09-19T10:27:54;100933.25;;;24.45
64947;BMP280;51469;52.150;4.682;2023-09-19T10:30:22;100928.06;;;24.52
64947;BMP280;51469;52.150;4.682;2023-09-19T10:32:56;100941.06;;;24.64
64947;BMP280;51469;52.150;4.682;2023-09-19T10:35:22;100928.72;;;24.71
64947;BMP280;51469;52.150;4.682;2023-09-19T10:37:50;100929.75;;;24.82
64947;BMP280;51469;52.150;4.682;2023-09-19T10:40:18;100924.38;;;24.93
64947;BMP280;51469;52.150;4.682;2023-09-19T10:42:45;100919.59;;;24.61
64947;BMP280;51469;52.150;4.682;2023-09-19T10:45:12;100917.31;;;24.74
64947;BMP280;51469;52.150;4.682;2023-09-19T10:47:40;100924.25;;;24.64
64947;BMP280;51469;52.150;4.682;2023-09-19T10:50:06;100931.22;;;24.45
64947;BMP280;51469;52.150;4.682;2023-09-19T10:52:40;100936.69;;;24.40
64947;BMP280;51469;52.150;4.682;2023-09-19T10:55:07;100938.94;;;24.18
64947;BMP280;51469;52.150;4.682;2023-09-19T10:57:35;100926.97;;;24.17
64947;BMP280;51469;52.150;4.682;2023-09-19T11:00:06;100914.66;;;24.47
64947;BMP280;51469;52.150;4.682;2023-09-19T11:05:37;100901.00;;;24.96
64947;BMP280;51469;52.150;4.682;2023-09-19T11:08:06;100899.28;;;25.13
64947;BMP280;51469;52.150;4.682;2023-09-19T11:10:49;100897.41;;;25.34
64947;BMP280;51469;52.150;4.682;2023-09-19T11:26:50;100903.00;;;24.96
64947;BMP280;51469;52.150;4.682;2023-09-19T11:29:35;100892.97;;;24.80
64947;BMP280;51469;52.150;4.682;2023-09-19T11:32:01;100896.00;;;24.68
64947;BMP280;51469;52.150;4.682;2023-09-19T11:37:01;100885.19;;;24.75
64947;BMP280;51469;52.150;4.682;2023-09-19T11:39:29;100889.38;;;25.03
64947;BMP280;51469;52.150;4.682;2023-09-19T11:41:55;100890.16;;;24.80
64947;BMP280;51469;52.150;4.682;2023-09-19T11:46:52;100884.97;;;24.64
64947;BMP280;51469;52.150;4.682;2023-09-19T11:49:29;100882.41;;;24.52
64947;BMP280;51469;52.150;4.682;2023-09-19T11:52:01;100894.22;;;24.56
64947;BMP280;51469;52.150;4.682;2023-09-19T11:54:31;100893.34;;;24.73
64947;BMP280;51469;52.150;4.682;2023-09-19T11:56:58;100889.75;;;24.96
64947;BMP280;51469;52.150;4.682;2023-09-19T11:59:25;100888.53;;;24.88
64947;BMP280;51469;52.150;4.682;2023-09-19T12:01:56;100893.50;;;24.93
64947;BMP280;51469;52.150;4.682;2023-09-19T12:04:37;100888.44;;;25.06
64947;BMP280;51469;52.150;4.682;2023-09-19T12:07:10;100895.94;;;25.00
64947;BMP280;51469;52.150;4.682;2023-09-19T12:09:44;100886.97;;;24.40
64947;BMP280;51469;52.150;4.682;2023-09-19T12:12:19;100879.06;;;24.62
64947;BMP280;51469;52.150;4.682;2023-09-19T12:14:48;100882.91;;;24.88
64947;BMP280;51469;52.150;4.682;2023-09-19T12:17:14;100883.25;;;24.90
64947;BMP280;51469;52.150;4.682;2023-09-19T12:19:49;100893.63;;;24.99
64947;BMP280;51469;52.150;4.682;2023-09-19T12:22:15;100886.84;;;24.35
64947;BMP280;51469;52.150;4.682;2023-09-19T12:24:41;100879.38;;;25.26
64947;BMP280;51469;52.150;4.682;2023-09-19T12:27:09;100875.88;;;25.45
64947;BMP280;51469;52.150;4.682;2023-09-19T12:29:47;100883.56;;;25.07
64947;BMP280;51469;52.150;4.682;2023-09-19T12:32:34;100892.06;;;25.79
64947;BMP280;51469;52.150;4.682;2023-09-19T12:34:59;100898.38;;;24.84
64947;BMP280;51469;52.150;4.682;2023-09-19T12:37:28;100881.28;;;25.20
64947;BMP280;51469;52.150;4.682;2023-09-19T12:40:07;100893.47;;;25.31
64947;BMP280;51469;52.150;4.682;2023-09-19T12:42:48;100874.25;;;25.53
64947;BMP280;51469;52.150;4.682;2023-09-19T12:45:15;100882.63;;;25.24
64947;BMP280;51469;52.150;4.682;2023-09-19T12:51:08;100874.75;;;25.37
64947;BMP280;51469;52.150;4.682;2023-09-19T12:53:39;100878.78;;;24.98
64947;BMP280;51469;52.150;4.682;2023-09-19T12:56:08;100869.56;;;24.83
64947;BMP280;51469;52.150;4.682;2023-09-19T12:58:48;100873.78;;;25.40
64947;BMP280;51469;52.150;4.682;2023-09-19T13:01:15;100880.72;;;25.45
64947;BMP280;51469;52.150;4.682;2023-09-19T13:03:41;100878.44;;;25.05
64947;BMP280;51469;52.150;4.682;2023-09-19T13:06:07;100876.44;;;25.35
64947;BMP280;51469;52.150;4.682;2023-09-19T13:08:37;100875.97;;;24.98
64947;BMP280;51469;52.150;4.682;2023-09-19T13:11:10;100892.25;;;24.94
64947;BMP280;51469;52.150;4.682;2023-09-19T13:14:13;100880.56;;;24.72
64947;BMP280;51469;52.150;4.682;2023-09-19T13:16:52;100885.75;;;25.26
64947;BMP280;51469;52.150;4.682;2023-09-19T13:19:40;100876.97;;;24.48
64947;BMP280;51469;52.150;4.682;2023-09-19T13:22:38;100889.75;;;24.49
64947;BMP280;51469;52.150;4.682;2023-09-19T13:25:12;100886.78;;;24.44
64947;BMP280;51469;52.150;4.682;2023-09-19T13:27:44;100903.28;;;24.18
64947;BMP280;51469;52.150;4.682;2023-09-19T13:30:11;100892.88;;;24.42
64947;BMP280;51469;52.150;4.682;2023-09-19T13:32:36;100887.94;;;24.84
64947;BMP280;51469;52.150;4.682;2023-09-19T13:35:05;100879.41;;;24.55
64947;BMP280;51469;52.150;4.682;2023-09-19T13:37:30;100867.88;;;25.00
64947;BMP280;51469;52.150;4.682;2023-09-19T13:39:56;100885.31;;;25.04
64947;BMP280;51469;52.150;4.682;2023-09-19T13:42:24;100870.47;;;24.66
64947;BMP280;51469;52.150;4.682;2023-09-19T13:44:50;100876.19;;;24.71
64947;BMP280;51469;52.150;4.682;2023-09-19T13:47:16;100861.72;;;24.64
64947;BMP280;51469;52.150;4.682;2023-09-19T13:49:41;100887.94;;;24.84
64947;BMP280;51469;52.150;4.682;2023-09-19T13:52:08;100887.16;;;24.60
64947;BMP280;51469;52.150;4.682;2023-09-19T13:54:34;100889.31;;;24.65
64947;BMP280;51469;52.150;4.682;2023-09-19T13:57:00;100887.75;;;24.41
64947;BMP280;51469;52.150;4.682;2023-09-19T13:59:26;100893.72;;;24.66
64947;BMP280;51469;52.150;4.682;2023-09-19T14:01:53;100880.72;;;24.92
64947;BMP280;51469;52.150;4.682;2023-09-19T14:04:21;100874.53;;;24.65
64947;BMP280;51469;52.150;4.682;2023-09-19T14:06:47;100860.91;;;24.72
64947;BMP280;51469;52.150;4.682;2023-09-19T14:09:12;100876.88;;;24.66
64947;BMP280;51469;52.150;4.682;2023-09-19T14:11:39;100877.66;;;24.34
64947;BMP280;51469;52.150;4.682;2023-09-19T14:14:04;100899.13;;;24.05
64947;BMP280;51469;52.150;4.682;2023-09-19T14:16:30;100911.78;;;23.73
64947;BMP280;51469;52.150;4.682;2023-09-19T14:18:56;100914.28;;;23.89
64947;BMP280;51469;52.150;4.682;2023-09-19T14:21:23;100895.88;;;23.88
64947;BMP280;51469;52.150;4.682;2023-09-19T14:23:48;100908.38;;;23.78
64947;BMP280;51469;52.150;4.682;2023-09-19T14:26:14;100892.72;;;23.45
64947;BMP280;51469;52.150;4.682;2023-09-19T14:28:41;100886.31;;;23.53
64947;BMP280;51469;52.150;4.682;2023-09-19T14:31:08;100898.59;;;23.56
64947;BMP280;51469;52.150;4.682;2023-09-19T14:33:33;100895.94;;;23.70
64947;BMP280;51469;52.150;4.682;2023-09-19T14:36:02;100891.59;;;23.60
64947;BMP280;51469;52.150;4.682;2023-09-19T14:38:28;100900.81;;;23.43
64947;BMP280;51469;52.150;4.682;2023-09-19T14:41:01;100882.19;;;23.81
64947;BMP280;51469;52.150;4.682;2023-09-19T14:43:26;100880.97;;;23.82
64947;BMP280;51469;52.150;4.682;2023-09-19T14:45:54;100882.22;;;23.90
64947;BMP280;51469;52.150;4.682;2023-09-19T14:48:19;100876.84;;;24.01
64947;BMP280;51469;52.150;4.682;2023-09-19T14:50:44;100877.47;;;24.05
64947;BMP280;51469;52.150;4.682;2023-09-19T14:53:11;100867.25;;;23.93
64947;BMP280;51469;52.150;4.682;2023-09-19T14:55:37;100876.19;;;24.15
64947;BMP280;51469;52.150;4.682;2023-09-19T14:58:06;100869.66;;;24.09